createdAt,value
2022-12-12T00:01:41.935Z,13.57
2022-12-12T00:04:44.714Z,13.70
2022-12-12T00:07:49.218Z,14.40
2022-12-12T00:10:51.801Z,14.07
2022-12-12T00:13:55.365Z,13.27
2022-12-12T00:16:58.035Z,13.05
2022-12-12T00:20:00.831Z,12.87
2022-12-12T00:23:04.777Z,12.60
2022-12-12T00:29:15.150Z,13.50
2022-12-12T00:32:17.815Z,12.83
2022-12-12T00:35:20.602Z,13.63
2022-12-12T00:38:25.265Z,12.70
2022-12-12T00:41:28.455Z,12.90
2022-12-12T00:44:31.209Z,12.45
2022-12-12T00:47:33.995Z,12.97
2022-12-12T00:50:36.849Z,11.17
2022-12-12T00:53:41.291Z,11.60
2022-12-12T00:56:44.131Z,11.23
2022-12-12T00:59:46.976Z,12.20
2022-12-12T01:02:51.774Z,11.30
2022-12-12T01:05:54.488Z,11.90
2022-12-12T01:08:59.106Z,10.40
2022-12-12T01:12:02.018Z,11.73
2022-12-12T01:15:06.625Z,10.25
2022-12-12T01:18:09.633Z,9.87
2022-12-12T01:21:16.811Z,10.35
2022-12-12T01:24:20.929Z,10.60
2022-12-12T01:27:24.197Z,9.10
2022-12-12T01:30:27.913Z,9.43
2022-12-12T01:33:31.121Z,10.32
2022-12-12T01:36:34.055Z,9.15
2022-12-12T01:39:38.932Z,8.68
2022-12-12T01:42:41.853Z,7.73
2022-12-12T01:46:37.468Z,9.50
2022-12-12T01:49:41.276Z,8.27
2022-12-12T01:52:48.774Z,8.13
2022-12-12T01:55:53.340Z,8.83
2022-12-12T01:58:57.031Z,9.30
2022-12-12T02:01:59.812Z,8.10
2022-12-12T02:05:06.075Z,8.63
2022-12-12T02:08:09.670Z,9.20
2022-12-12T02:11:13.856Z,7.30
2022-12-12T02:14:19.419Z,8.03
2022-12-12T02:17:45.310Z,8.43
2022-12-12T02:21:03.190Z,7.47
2022-12-12T02:24:38.138Z,7.07
2022-12-12T02:27:53.699Z,7.03
2022-12-12T02:31:13.925Z,8.37
2022-12-12T02:34:20.899Z,7.50
2022-12-12T02:37:32.513Z,7.50
2022-12-12T02:40:40.521Z,7.60
2022-12-12T02:43:45.471Z,7.70
2022-12-12T02:46:53.720Z,7.70
2022-12-12T02:49:58.973Z,9.57
2022-12-12T02:53:02.218Z,7.77
2022-12-12T02:56:07.436Z,8.40
2022-12-12T02:59:11.043Z,8.20
2022-12-12T03:02:33.482Z,8.38
2022-12-12T03:06:01.407Z,8.32
2022-12-12T03:09:10.590Z,9.00
2022-12-12T03:12:17.404Z,9.63
2022-12-12T03:15:24.386Z,10.73
2022-12-12T03:18:32.366Z,11.05
2022-12-12T03:21:40.539Z,10.82
2022-12-12T03:24:49.606Z,11.65
2022-12-12T03:27:55.572Z,11.13
2022-12-12T03:31:00.324Z,11.35
2022-12-12T03:34:08.257Z,11.35
2022-12-12T03:37:14.927Z,12.18
2022-12-12T03:40:21.748Z,12.40
2022-12-12T03:43:26.837Z,12.00
2022-12-12T03:46:32.651Z,12.40
2022-12-12T03:49:41.539Z,19.70
2022-12-12T03:52:47.528Z,13.40
2022-12-12T03:55:53.116Z,12.32
2022-12-12T03:58:59.173Z,12.25
2022-12-12T04:02:04.891Z,12.82
2022-12-12T04:05:16.086Z,13.32
2022-12-12T04:08:19.404Z,11.68
2022-12-12T04:11:40.411Z,13.85
2022-12-12T04:15:06.558Z,13.48
2022-12-12T04:18:15.937Z,13.75
2022-12-12T04:21:43.690Z,13.20
2022-12-12T04:24:49.670Z,16.30
2022-12-12T04:27:56.980Z,14.60
2022-12-12T04:31:03.524Z,13.80
2022-12-12T04:34:11.226Z,13.85
2022-12-12T04:37:18.332Z,14.25
2022-12-12T04:40:23.143Z,14.52
2022-12-12T04:43:31.608Z,13.15
2022-12-12T04:46:35.001Z,14.70
2022-12-12T04:49:39.658Z,14.82
2022-12-12T04:52:44.641Z,13.10
2022-12-12T04:55:50.914Z,13.60
2022-12-12T04:58:55.645Z,12.97
2022-12-12T05:02:06.043Z,13.65
2022-12-12T05:05:13.388Z,14.57
2022-12-12T05:08:22.328Z,14.18
2022-12-12T05:11:25.721Z,15.32
2022-12-12T05:14:28.779Z,14.82
2022-12-12T05:17:36.585Z,14.05
2022-12-12T05:20:39.707Z,13.67
2022-12-12T05:23:44.002Z,14.57
2022-12-12T05:26:46.666Z,13.20
2022-12-12T05:29:49.649Z,12.47
2022-12-12T05:32:53.626Z,14.65
2022-12-12T05:35:56.494Z,14.93
2022-12-12T05:39:01.342Z,13.40
2022-12-12T05:42:04.248Z,12.53
2022-12-12T05:45:08.245Z,12.70
2022-12-12T05:48:11.377Z,15.07
2022-12-12T05:51:14.330Z,12.60
2022-12-12T05:54:18.345Z,14.27
2022-12-12T05:57:21.683Z,12.77
2022-12-12T06:00:24.463Z,13.15
2022-12-12T06:03:27.584Z,12.70
2022-12-12T06:06:30.262Z,11.43
2022-12-12T06:09:34.468Z,13.63
2022-12-12T06:12:37.059Z,13.30
2022-12-12T06:15:41.144Z,12.97
2022-12-12T06:18:43.733Z,13.10
2022-12-12T06:21:46.569Z,13.30
2022-12-12T06:24:50.629Z,12.63
2022-12-12T06:27:53.237Z,13.37
2022-12-12T06:30:55.915Z,13.23
2022-12-12T06:33:58.843Z,13.43
2022-12-12T06:37:01.624Z,12.98
2022-12-12T06:40:06.651Z,11.87
2022-12-12T06:43:10.131Z,12.03
2022-12-12T06:46:16.665Z,12.80
2022-12-12T06:49:20.876Z,12.20
2022-12-12T06:52:23.969Z,13.33
2022-12-12T06:55:28.823Z,13.57
2022-12-12T06:58:33.372Z,13.00
2022-12-12T07:01:36.157Z,13.03
2022-12-12T07:04:38.988Z,12.57
2022-12-12T07:07:41.719Z,13.15
2022-12-12T07:10:46.322Z,13.10
2022-12-12T07:13:48.978Z,14.00
2022-12-12T07:16:51.604Z,13.47
2022-12-12T07:19:54.378Z,11.40
2022-12-12T07:22:57.340Z,12.40
2022-12-12T07:26:04.436Z,14.50
2022-12-12T07:29:07.190Z,13.37
2022-12-12T07:32:10.094Z,13.50
2022-12-12T07:35:12.871Z,11.98
2022-12-12T07:38:15.915Z,14.00
2022-12-12T07:41:21.339Z,11.95
2022-12-12T07:44:23.991Z,13.97
2022-12-12T07:47:26.576Z,12.20
2022-12-12T07:50:29.578Z,13.07
2022-12-12T07:53:32.477Z,13.90
2022-12-12T07:56:36.724Z,12.40
2022-12-12T07:59:39.780Z,12.83
2022-12-12T08:02:42.911Z,13.00
2022-12-12T08:05:46.235Z,13.48
2022-12-12T08:08:50.954Z,12.15
2022-12-12T08:11:58.385Z,12.60
2022-12-12T08:15:02.561Z,11.80
2022-12-12T08:18:05.757Z,12.57
2022-12-12T08:21:11.631Z,12.48
2022-12-12T08:24:16.268Z,12.03
2022-12-12T08:27:20.256Z,12.80
2022-12-12T08:30:23.035Z,12.67
2022-12-12T08:33:25.611Z,12.23
2022-12-12T08:36:30.270Z,12.40
2022-12-12T08:39:33.379Z,11.37
2022-12-12T08:42:37.601Z,12.00
2022-12-12T08:45:40.853Z,12.03
2022-12-12T08:48:43.752Z,12.75
2022-12-12T08:51:46.745Z,12.80
2022-12-12T08:54:49.482Z,12.98
2022-12-12T08:57:53.673Z,13.53
2022-12-12T09:00:57.873Z,14.10
2022-12-12T09:04:00.662Z,13.23
2022-12-12T09:07:08.837Z,12.63
2022-12-12T09:10:11.713Z,14.27
2022-12-12T09:13:15.627Z,13.83
2022-12-12T09:19:22.061Z,11.93
2022-12-12T09:22:24.854Z,12.50
2022-12-12T09:25:27.502Z,12.17
2022-12-12T09:28:31.417Z,13.57
2022-12-12T09:34:38.080Z,11.80
2022-12-12T09:37:41.296Z,11.80
2022-12-12T09:40:55.236Z,12.32
2022-12-12T09:44:01.705Z,12.10
2022-12-12T09:47:07.222Z,12.50
2022-12-12T09:50:16.357Z,12.53
2022-12-12T09:53:21.532Z,12.67
2022-12-12T09:56:28.936Z,12.80
2022-12-12T09:59:38.795Z,12.07
2022-12-12T10:02:49.615Z,12.90
2022-12-12T10:06:20.585Z,12.63
2022-12-12T10:09:36.531Z,10.43
2022-12-12T10:12:39.522Z,10.60
2022-12-12T10:15:46.197Z,10.90
2022-12-12T10:18:51.545Z,9.87
2022-12-12T10:21:55.889Z,10.37
2022-12-12T10:25:03.974Z,9.73
2022-12-12T10:28:11.073Z,9.33
2022-12-12T10:31:23.893Z,10.73
2022-12-12T10:34:35.870Z,10.13
2022-12-12T10:37:45.474Z,10.47
2022-12-12T10:40:54.771Z,10.87
2022-12-12T10:44:05.424Z,10.13
2022-12-12T10:47:11.789Z,10.27
2022-12-12T10:50:23.093Z,9.80
2022-12-12T10:53:26.040Z,9.27
2022-12-12T10:56:30.029Z,11.05
2022-12-12T10:59:33.124Z,10.70
2022-12-12T11:02:42.479Z,9.95
2022-12-12T11:05:45.996Z,12.07
2022-12-12T11:08:56.679Z,10.68
2022-12-12T11:12:01.003Z,9.83
2022-12-12T11:15:08.806Z,13.67
2022-12-12T11:18:17.184Z,9.37
2022-12-12T11:21:21.755Z,9.63
2022-12-12T11:24:28.813Z,10.37
2022-12-12T11:27:34.548Z,11.17
2022-12-12T11:30:39.980Z,10.87
2022-12-12T11:33:48.741Z,10.93
2022-12-12T11:36:51.850Z,10.10
2022-12-12T11:39:55.806Z,10.63
2022-12-12T11:43:15.581Z,10.17
2022-12-12T11:46:19.935Z,10.50
2022-12-12T11:49:24.202Z,10.23
2022-12-12T11:52:29.971Z,10.70
2022-12-12T11:55:38.681Z,10.37
2022-12-12T11:58:47.213Z,10.20
2022-12-12T12:01:57.438Z,9.50
2022-12-12T12:05:08.140Z,10.10
2022-12-12T12:08:19.316Z,10.70
2022-12-12T12:11:28.717Z,9.57
2022-12-12T12:14:45.722Z,11.30
2022-12-12T12:18:00.807Z,9.50
2022-12-12T12:21:29.357Z,10.47
2022-12-12T12:24:50.912Z,10.67
2022-12-12T12:28:01.724Z,10.63
2022-12-12T12:31:11.025Z,9.90
2022-12-12T12:34:20.606Z,10.10
2022-12-12T12:37:34.144Z,10.03
2022-12-12T12:40:49.470Z,9.43
2022-12-12T12:44:03.080Z,10.37
2022-12-12T12:47:13.514Z,10.82
2022-12-12T12:50:19.305Z,9.53
2022-12-12T12:53:30.007Z,10.00
2022-12-12T12:56:38.535Z,10.77
2022-12-12T12:59:47.030Z,9.30
2022-12-12T13:02:55.251Z,10.10
2022-12-12T13:06:00.098Z,9.87
2022-12-12T13:09:31.911Z,9.93
2022-12-12T13:12:37.341Z,9.37
2022-12-12T13:15:42.820Z,10.00
2022-12-12T13:18:48.329Z,9.77
2022-12-12T13:21:56.576Z,9.67
2022-12-12T13:25:05.173Z,9.20
2022-12-12T13:28:13.613Z,10.47
2022-12-12T13:31:29.029Z,11.30
2022-12-12T13:34:32.355Z,9.00
2022-12-12T13:37:36.492Z,10.30
2022-12-12T13:40:44.764Z,10.70
2022-12-12T13:43:48.780Z,9.80
2022-12-12T13:46:51.483Z,10.40
2022-12-12T13:49:55.277Z,11.63
2022-12-12T13:53:20.766Z,11.07
2022-12-12T13:56:35.125Z,10.37
2022-12-12T14:03:02.029Z,10.43
2022-12-12T14:06:11.221Z,9.07
2022-12-12T14:09:21.365Z,10.17
2022-12-12T14:12:31.420Z,10.23
2022-12-12T14:15:41.182Z,10.53
2022-12-12T14:18:59.824Z,10.43
2022-12-12T14:22:02.405Z,13.17
2022-12-12T14:25:09.167Z,12.53
2022-12-12T14:28:19.749Z,11.13
2022-12-12T14:31:23.547Z,10.83
2022-12-12T14:34:28.503Z,11.17
2022-12-12T14:37:40.379Z,10.70
2022-12-12T14:40:46.323Z,10.87
2022-12-12T14:44:38.017Z,11.97
2022-12-12T14:47:18.509Z,10.47
2022-12-12T14:50:21.050Z,10.63
2022-12-12T14:53:25.487Z,11.30
2022-12-12T14:56:29.594Z,10.87
2022-12-12T14:59:35.510Z,12.57
2022-12-12T15:02:40.072Z,12.23
2022-12-12T15:05:42.883Z,11.20
2022-12-12T15:08:45.724Z,10.87
2022-12-12T15:11:49.294Z,11.13
2022-12-12T15:14:58.194Z,11.93
2022-12-12T15:18:02.211Z,11.53
2022-12-12T15:21:05.698Z,10.87
2022-12-12T15:24:17.456Z,12.25
2022-12-12T15:27:25.216Z,11.47
2022-12-12T15:30:33.932Z,11.30
2022-12-12T15:33:39.286Z,11.23
2022-12-12T15:36:41.974Z,11.37
2022-12-12T15:39:44.813Z,10.83
2022-12-12T15:42:50.212Z,10.83
2022-12-12T15:45:56.036Z,11.83
2022-12-12T15:48:58.870Z,11.80
2022-12-12T15:52:10.166Z,10.03
2022-12-12T15:55:20.552Z,11.00
2022-12-12T15:58:29.466Z,10.50
2022-12-12T16:01:33.833Z,10.47
2022-12-12T16:04:36.995Z,10.03
2022-12-12T16:07:40.741Z,10.20
2022-12-12T16:10:52.245Z,11.33
2022-12-12T16:13:55.205Z,9.63
2022-12-12T16:17:02.899Z,8.38
2022-12-12T16:20:07.493Z,10.10
2022-12-12T16:23:17.515Z,10.73
2022-12-12T16:26:20.402Z,9.23
2022-12-12T16:29:23.237Z,9.50
2022-12-12T16:32:27.791Z,9.03
2022-12-12T16:35:30.683Z,8.40
2022-12-12T16:38:33.661Z,9.70
2022-12-12T16:41:36.787Z,9.45
2022-12-12T16:44:39.466Z,9.00
2022-12-12T16:47:43.537Z,9.13
2022-12-12T16:50:46.858Z,9.43
2022-12-12T16:53:49.451Z,8.93
2022-12-12T16:56:54.025Z,9.27
2022-12-12T16:59:56.826Z,8.70
2022-12-12T17:03:00.871Z,8.80
2022-12-12T17:06:04.122Z,8.43
2022-12-12T17:09:06.725Z,7.43
2022-12-12T17:12:11.623Z,8.10
2022-12-12T17:15:17.397Z,9.30
2022-12-12T17:18:21.801Z,8.87
2022-12-12T17:21:24.380Z,8.97
2022-12-12T17:24:27.319Z,9.03
2022-12-12T17:27:30.108Z,8.77
2022-12-12T17:30:32.878Z,8.80
2022-12-12T17:33:49.615Z,8.87
2022-12-12T17:36:53.221Z,9.67
2022-12-12T17:39:55.835Z,9.20
2022-12-12T17:42:58.967Z,9.20
2022-12-12T17:46:04.421Z,9.07
2022-12-12T17:49:08.710Z,8.80
2022-12-12T17:52:11.319Z,8.80
2022-12-12T17:55:54.735Z,9.30
2022-12-12T17:58:36.673Z,9.83
2022-12-12T18:01:39.253Z,9.15
2022-12-12T18:04:43.520Z,9.15
2022-12-12T18:07:46.593Z,10.05
2022-12-12T18:10:49.463Z,10.57
2022-12-12T18:13:52.969Z,10.23
2022-12-12T18:16:55.911Z,10.57
2022-12-12T18:20:00.039Z,9.82
2022-12-12T18:23:02.977Z,9.13
2022-12-12T18:26:06.680Z,9.88
2022-12-12T18:29:09.980Z,10.70
2022-12-12T18:32:12.821Z,9.55
2022-12-12T18:35:16.992Z,9.73
2022-12-12T18:38:20.371Z,11.23
2022-12-12T18:41:23.239Z,12.60
2022-12-12T18:44:26.067Z,13.32
2022-12-12T18:47:28.861Z,15.77
2022-12-12T18:50:33.983Z,15.30
2022-12-12T18:53:37.795Z,16.40
2022-12-12T18:59:43.305Z,12.52
2022-12-12T19:02:46.066Z,10.43
2022-12-12T19:05:50.220Z,10.10
2022-12-12T19:08:54.328Z,9.23
2022-12-12T19:12:02.507Z,11.00
2022-12-12T19:15:21.724Z,11.98
2022-12-12T19:18:24.842Z,10.63
2022-12-12T19:21:28.996Z,11.80
2022-12-12T19:24:31.655Z,10.90
2022-12-12T19:27:34.351Z,12.52
2022-12-12T19:30:40.835Z,11.68
2022-12-12T19:33:43.590Z,10.77
2022-12-12T19:36:47.636Z,9.93
2022-12-12T19:39:52.265Z,9.35
2022-12-12T19:42:54.977Z,11.07
2022-12-12T19:46:04.121Z,12.00
2022-12-12T19:49:08.545Z,12.85
2022-12-12T19:52:14.487Z,11.05
2022-12-12T19:55:17.700Z,11.38
2022-12-12T19:58:20.609Z,11.68
2022-12-12T20:01:25.514Z,12.82
2022-12-12T20:04:30.251Z,12.02
2022-12-12T20:07:34.445Z,11.10
2022-12-12T20:10:38.884Z,10.57
2022-12-12T20:13:41.919Z,9.93
2022-12-12T20:16:45.415Z,11.32
2022-12-12T20:19:49.386Z,10.05
2022-12-12T20:22:53.605Z,11.75
2022-12-12T20:25:56.229Z,11.23
2022-12-12T20:29:00.617Z,10.43
2022-12-12T20:32:03.357Z,10.88
2022-12-12T20:35:06.802Z,11.32
2022-12-12T20:38:11.185Z,11.90
2022-12-12T20:41:18.179Z,11.73
2022-12-12T20:44:20.944Z,12.23
2022-12-12T20:47:24.380Z,13.40
2022-12-12T20:50:27.500Z,14.05
2022-12-12T20:53:36.252Z,13.63
2022-12-12T20:56:42.952Z,15.10
2022-12-12T20:59:49.379Z,14.60
2022-12-12T21:02:52.069Z,13.38
2022-12-12T21:05:55.104Z,12.52
2022-12-12T21:09:00.958Z,12.57
2022-12-12T21:12:03.701Z,12.65
2022-12-12T21:15:06.964Z,11.00
2022-12-12T21:18:09.933Z,15.35
2022-12-12T21:21:13.540Z,11.60
2022-12-12T21:24:19.416Z,11.30
2022-12-12T21:27:22.185Z,12.43
2022-12-12T21:30:25.025Z,11.70
2022-12-12T21:33:28.413Z,12.50
2022-12-12T21:36:31.381Z,12.45
2022-12-12T21:39:36.659Z,12.30
2022-12-12T21:42:39.526Z,11.48
2022-12-12T21:45:42.193Z,12.57
2022-12-12T21:48:44.942Z,12.20
2022-12-12T21:51:47.716Z,11.68
2022-12-12T21:54:51.785Z,11.35
2022-12-12T21:57:54.452Z,11.50
2022-12-12T22:00:57.265Z,11.65
2022-12-12T22:04:01.033Z,12.63
2022-12-12T22:10:10.823Z,10.02
2022-12-12T22:13:14.720Z,11.85
2022-12-12T22:16:19.400Z,11.98
2022-12-12T22:19:22.050Z,10.85
2022-12-12T22:22:24.752Z,13.40
2022-12-12T22:25:29.108Z,11.23
2022-12-12T22:28:32.159Z,12.13
2022-12-12T22:31:37.462Z,11.63
2022-12-12T22:34:40.729Z,11.88
2022-12-12T22:37:43.402Z,11.77
2022-12-12T22:40:55.280Z,9.75
2022-12-12T22:43:59.838Z,10.30
2022-12-12T22:47:02.586Z,10.50
2022-12-12T22:50:05.798Z,11.10
2022-12-12T22:53:08.741Z,10.70
2022-12-12T22:56:13.469Z,9.77
2022-12-12T22:59:16.725Z,10.95
2022-12-12T23:02:24.770Z,10.48
2022-12-12T23:05:28.036Z,10.57
2022-12-12T23:08:31.039Z,10.05
2022-12-12T23:11:36.607Z,11.75
2022-12-12T23:14:39.404Z,13.30
2022-12-12T23:17:42.073Z,10.63
2022-12-12T23:20:47.011Z,13.55
2022-12-12T23:23:50.390Z,12.52
2022-12-12T23:26:54.479Z,11.50
2022-12-12T23:29:57.134Z,10.80
2022-12-12T23:32:59.955Z,11.07
2022-12-12T23:36:02.876Z,11.90
2022-12-12T23:39:08.707Z,11.23
2022-12-12T23:42:12.965Z,10.52
2022-12-12T23:45:16.662Z,11.55
2022-12-12T23:48:20.066Z,12.63
2022-12-12T23:51:23.410Z,12.20
2022-12-12T23:54:28.404Z,11.60
2022-12-12T23:57:32.491Z,11.68
